createdAt,value
2022-11-05T00:02:00.454Z,4.50
2022-11-05T00:04:46.473Z,3.97
2022-11-05T00:07:40.468Z,5.18
2022-11-05T00:10:08.860Z,5.07
2022-11-05T00:12:54.717Z,5.50
2022-11-05T00:15:40.658Z,5.93
2022-11-05T00:18:07.907Z,6.13
2022-11-05T00:20:35.182Z,6.47
2022-11-05T00:23:21.288Z,7.28
2022-11-05T00:25:55.440Z,4.40
2022-11-05T00:28:22.758Z,2.75
2022-11-05T00:30:51.143Z,5.55
2022-11-05T00:33:18.454Z,5.20
2022-11-05T00:35:45.670Z,5.45
2022-11-05T00:38:13.119Z,5.18
2022-11-05T00:40:40.344Z,5.10
2022-11-05T00:43:26.195Z,6.20
2022-11-05T00:45:53.368Z,7.35
2022-11-05T00:48:39.304Z,4.78
2022-11-05T00:51:06.769Z,3.55
2022-11-05T00:53:34.075Z,5.72
2022-11-05T00:56:01.987Z,3.88
2022-11-05T00:58:29.393Z,5.72
2022-11-05T01:00:57.552Z,3.58
2022-11-05T01:03:26.242Z,4.80
2022-11-05T01:05:54.915Z,5.65
2022-11-05T01:08:23.125Z,5.82
2022-11-05T01:10:51.706Z,4.20
2022-11-05T01:13:20.431Z,3.47
2022-11-05T01:15:48.134Z,4.78
2022-11-05T01:18:15.410Z,5.53
2022-11-05T01:20:42.742Z,4.30
2022-11-05T01:23:13.477Z,4.20
2022-11-05T01:25:41.535Z,6.05
2022-11-05T01:28:09.627Z,5.82
2022-11-05T01:30:37.170Z,6.65
2022-11-05T01:33:04.440Z,4.60
2022-11-05T01:35:31.741Z,8.75
2022-11-05T01:37:59.080Z,4.95
2022-11-05T01:40:26.694Z,6.53
2022-11-05T01:42:53.977Z,5.45
2022-11-05T01:45:23.436Z,6.63
2022-11-05T01:47:50.627Z,5.88
2022-11-05T01:50:23.693Z,5.60
2022-11-05T01:52:52.812Z,5.55
2022-11-05T01:55:24.519Z,6.38
2022-11-05T01:57:53.199Z,5.05
2022-11-05T02:00:20.475Z,6.93
2022-11-05T02:02:48.272Z,8.10
2022-11-05T02:05:16.061Z,4.30
2022-11-05T02:07:45.848Z,6.72
2022-11-05T02:10:14.438Z,5.80
2022-11-05T02:12:43.684Z,6.45
2022-11-05T02:15:12.739Z,6.10
2022-11-05T02:17:47.935Z,6.10
2022-11-05T02:20:22.580Z,7.35
2022-11-05T02:22:52.994Z,4.90
2022-11-05T02:25:32.799Z,6.15
2022-11-05T02:28:18.959Z,6.65
2022-11-05T02:30:52.268Z,6.95
2022-11-05T02:33:22.475Z,7.38
2022-11-05T02:35:55.643Z,9.77
2022-11-05T02:38:29.274Z,4.88
2022-11-05T02:41:18.519Z,6.05
2022-11-05T02:43:54.543Z,6.63
2022-11-05T02:46:21.798Z,5.93
2022-11-05T02:49:09.078Z,6.80
2022-11-05T02:51:41.140Z,7.88
2022-11-05T02:54:18.544Z,6.72
2022-11-05T02:56:47.523Z,8.75
2022-11-05T02:59:14.782Z,7.68
2022-11-05T03:01:42.961Z,6.70
2022-11-05T03:04:11.704Z,7.32
2022-11-05T03:06:45.773Z,5.45
2022-11-05T03:09:25.408Z,5.32
2022-11-05T03:12:11.314Z,6.28
2022-11-05T03:14:43.658Z,8.55
2022-11-05T03:17:20.759Z,7.28
2022-11-05T03:19:47.953Z,6.90
2022-11-05T03:22:19.317Z,5.90
2022-11-05T03:24:51.807Z,4.95
2022-11-05T03:27:22.367Z,7.95
2022-11-05T03:30:01.048Z,7.18
2022-11-05T03:32:31.087Z,6.30
2022-11-05T03:35:03.492Z,8.98
2022-11-05T03:37:33.268Z,5.55
2022-11-05T03:40:02.550Z,8.45
2022-11-05T03:45:00.627Z,6.85
2022-11-05T03:47:33.526Z,7.68
2022-11-05T03:50:06.026Z,7.18
2022-11-05T03:52:36.529Z,8.30
2022-11-05T03:55:04.101Z,7.18
2022-11-05T03:57:33.198Z,6.82
2022-11-05T04:00:00.565Z,6.72
2022-11-05T04:02:28.224Z,9.63
2022-11-05T04:04:55.754Z,8.20
2022-11-05T04:07:41.844Z,9.00
2022-11-05T04:10:29.012Z,7.88
2022-11-05T04:13:14.872Z,8.43
2022-11-05T04:16:00.823Z,10.50
2022-11-05T04:18:27.995Z,6.35
2022-11-05T04:21:13.854Z,5.80
2022-11-05T04:23:59.554Z,7.75
2022-11-05T04:26:26.797Z,6.43
2022-11-05T04:29:12.769Z,6.72
2022-11-05T04:31:40.000Z,8.07
2022-11-05T04:34:07.322Z,5.45
2022-11-05T04:36:34.556Z,6.88
2022-11-05T04:39:01.789Z,7.30
2022-11-05T04:41:29.076Z,8.93
2022-11-05T04:43:56.292Z,7.85
2022-11-05T04:46:23.533Z,7.47
2022-11-05T04:48:50.845Z,7.13
2022-11-05T04:51:18.135Z,6.78
2022-11-05T04:53:45.595Z,6.72
2022-11-05T04:56:15.521Z,8.48
2022-11-05T04:58:43.321Z,8.55
2022-11-05T05:01:18.131Z,9.15
2022-11-05T05:03:47.464Z,9.48
2022-11-05T05:06:14.907Z,6.68
2022-11-05T05:08:42.117Z,5.97
2022-11-05T05:11:11.436Z,7.70
2022-11-05T05:13:38.667Z,6.55
2022-11-05T05:16:09.934Z,9.07
2022-11-05T05:18:40.913Z,7.85
2022-11-05T05:21:29.257Z,7.75
2022-11-05T05:23:56.471Z,6.45
2022-11-05T05:26:23.670Z,5.68
2022-11-05T05:28:50.897Z,7.43
2022-11-05T05:31:18.156Z,6.97
2022-11-05T05:33:45.399Z,5.43
2022-11-05T05:36:12.584Z,6.07
2022-11-05T05:38:40.197Z,7.32
2022-11-05T05:41:07.433Z,5.47
2022-11-05T05:43:34.748Z,6.32
2022-11-05T05:46:05.588Z,6.93
2022-11-05T05:48:32.818Z,5.20
2022-11-05T05:51:01.780Z,5.45
2022-11-05T05:53:29.287Z,6.07
2022-11-05T05:55:57.102Z,6.63
2022-11-05T05:58:26.807Z,6.03
2022-11-05T06:00:54.465Z,5.13
2022-11-05T06:03:22.029Z,5.57
2022-11-05T06:05:52.354Z,7.03
2022-11-05T06:08:19.612Z,4.97
2022-11-05T06:10:53.083Z,5.65
2022-11-05T06:13:20.396Z,5.82
2022-11-05T06:15:47.623Z,5.00
2022-11-05T06:18:14.849Z,5.07
2022-11-05T06:20:42.046Z,5.10
2022-11-05T06:23:09.669Z,4.40
2022-11-05T06:25:41.024Z,4.75
2022-11-05T06:28:08.681Z,5.97
2022-11-05T06:30:35.895Z,5.80
2022-11-05T06:33:04.247Z,6.05
2022-11-05T06:35:31.534Z,6.90
2022-11-05T06:38:02.493Z,6.05
2022-11-05T06:40:30.062Z,8.32
2022-11-05T06:42:57.593Z,6.20
2022-11-05T06:45:24.888Z,6.95
2022-11-05T06:47:58.251Z,5.93
2022-11-05T06:50:26.254Z,7.32
2022-11-05T06:52:55.211Z,7.95
2022-11-05T06:55:22.434Z,9.98
2022-11-05T06:57:50.493Z,9.00
2022-11-05T07:00:18.127Z,6.25
2022-11-05T07:02:45.551Z,7.50
2022-11-05T07:05:13.365Z,8.10
2022-11-05T07:07:41.434Z,6.57
2022-11-05T07:10:10.211Z,10.05
2022-11-05T07:12:37.474Z,8.27
2022-11-05T07:15:05.242Z,8.20
2022-11-05T07:17:32.530Z,7.53
2022-11-05T07:19:59.796Z,7.88
2022-11-05T07:22:27.027Z,7.70
2022-11-05T07:24:54.245Z,7.22
2022-11-05T07:27:21.670Z,8.63
2022-11-05T07:29:48.927Z,7.35
2022-11-05T07:32:16.171Z,8.15
2022-11-05T07:34:43.483Z,9.25
2022-11-05T07:37:10.661Z,7.32
2022-11-05T07:39:37.945Z,7.70
2022-11-05T07:42:05.195Z,7.88
2022-11-05T07:44:34.394Z,8.10
2022-11-05T07:47:01.633Z,8.93
2022-11-05T07:49:28.922Z,9.00
2022-11-05T07:51:56.103Z,9.57
2022-11-05T07:54:26.760Z,8.48
2022-11-05T07:56:53.990Z,9.52
2022-11-05T07:59:21.194Z,9.27
2022-11-05T08:01:48.607Z,8.60
2022-11-05T08:04:16.113Z,10.10
2022-11-05T08:06:43.502Z,8.95
2022-11-05T08:09:10.731Z,9.55
2022-11-05T08:11:40.288Z,8.88
2022-11-05T08:14:07.566Z,9.77
2022-11-05T08:16:34.791Z,8.18
2022-11-05T08:19:02.107Z,9.77
2022-11-05T08:21:29.449Z,10.07
2022-11-05T08:23:56.718Z,9.52
2022-11-05T08:26:23.921Z,10.13
2022-11-05T08:28:51.127Z,9.98
2022-11-05T08:31:18.408Z,12.68
2022-11-05T08:33:45.911Z,12.27
2022-11-05T08:36:13.205Z,13.70
2022-11-05T08:38:40.521Z,9.68
2022-11-05T08:41:07.758Z,11.20
2022-11-05T08:43:35.022Z,8.40
2022-11-05T08:46:02.427Z,10.88
2022-11-05T08:48:29.707Z,11.05
2022-11-05T08:50:56.979Z,13.65
2022-11-05T08:53:24.308Z,17.23
2022-11-05T08:55:51.734Z,14.98
2022-11-05T08:58:20.703Z,10.68
2022-11-05T09:00:49.087Z,11.27
2022-11-05T09:03:16.461Z,13.07
2022-11-05T09:05:44.228Z,14.35
2022-11-05T09:08:12.639Z,11.45
2022-11-05T09:10:40.398Z,13.77
2022-11-05T09:13:13.099Z,12.52
2022-11-05T09:15:44.036Z,11.07
2022-11-05T09:18:13.433Z,10.98
2022-11-05T09:23:08.565Z,11.55
2022-11-05T09:25:35.998Z,10.07
2022-11-05T09:28:14.678Z,9.32
2022-11-05T09:30:48.168Z,10.27
2022-11-05T09:33:16.089Z,10.18
2022-11-05T09:35:43.717Z,9.07
2022-11-05T09:38:11.194Z,12.05
2022-11-05T09:40:44.451Z,12.63
2022-11-05T09:43:17.566Z,9.68
2022-11-05T09:45:45.869Z,12.07
2022-11-05T09:48:14.771Z,11.55
2022-11-05T09:50:44.703Z,9.10
2022-11-05T09:53:16.865Z,11.32
2022-11-05T09:55:49.328Z,10.80
2022-11-05T09:58:29.146Z,9.77
2022-11-05T10:00:56.492Z,13.43
2022-11-05T10:03:24.332Z,12.25
2022-11-05T10:05:52.729Z,12.15
2022-11-05T10:08:25.149Z,10.40
2022-11-05T10:10:54.942Z,9.27
2022-11-05T10:13:27.981Z,11.25
2022-11-05T10:16:14.057Z,10.70
2022-11-05T10:18:43.020Z,11.32
2022-11-05T10:21:17.083Z,9.85
2022-11-05T10:23:45.464Z,9.85
2022-11-05T10:26:14.806Z,10.48
2022-11-05T10:31:10.338Z,9.15
2022-11-05T10:33:43.323Z,11.13
2022-11-05T10:36:12.115Z,12.40
2022-11-05T10:38:39.392Z,10.40
2022-11-05T10:41:15.709Z,10.77
2022-11-05T10:43:49.552Z,10.52
2022-11-05T10:46:16.782Z,10.10
2022-11-05T10:48:52.104Z,9.60
2022-11-05T10:51:19.529Z,10.70
2022-11-05T10:53:51.774Z,10.90
2022-11-05T10:56:48.818Z,11.63
2022-11-05T10:59:23.860Z,10.25
2022-11-05T11:02:09.852Z,10.77
2022-11-05T11:04:38.271Z,9.40
2022-11-05T11:07:06.712Z,8.52
2022-11-05T11:09:36.795Z,12.38
2022-11-05T11:12:13.982Z,9.20
2022-11-05T11:14:41.236Z,13.15
2022-11-05T11:17:26.590Z,10.77
2022-11-05T11:20:18.796Z,11.50
2022-11-05T11:23:16.758Z,11.88
2022-11-05T11:25:54.000Z,12.13
2022-11-05T11:28:25.300Z,11.30
2022-11-05T11:31:09.846Z,11.73
2022-11-05T11:33:41.205Z,9.88
2022-11-05T11:36:10.061Z,11.07
2022-11-05T11:38:37.547Z,9.98
2022-11-05T11:41:07.846Z,11.57
2022-11-05T11:43:36.354Z,10.43
2022-11-05T11:46:09.901Z,11.23
2022-11-05T11:48:40.915Z,9.68
2022-11-05T11:51:18.926Z,11.20
2022-11-05T11:53:48.279Z,9.63
2022-11-05T11:58:43.857Z,9.23
2022-11-05T12:01:21.581Z,11.02
2022-11-05T12:04:07.664Z,10.73
2022-11-05T12:06:53.774Z,8.27
2022-11-05T12:09:24.120Z,11.63
2022-11-05T12:11:55.164Z,8.75
2022-11-05T12:14:22.450Z,10.00
2022-11-05T12:16:50.554Z,9.98
2022-11-05T12:19:36.893Z,7.30
2022-11-05T12:22:19.436Z,10.68
2022-11-05T12:24:58.494Z,9.20
2022-11-05T12:27:36.659Z,10.82
2022-11-05T12:30:15.731Z,8.48
2022-11-05T12:32:42.964Z,10.93
2022-11-05T12:35:30.453Z,11.98
2022-11-05T12:38:17.919Z,11.30
2022-11-05T12:41:03.910Z,11.63
2022-11-05T12:43:41.378Z,8.40
2022-11-05T12:46:25.681Z,9.27
2022-11-05T12:48:55.984Z,9.48
2022-11-05T12:51:41.864Z,9.38
2022-11-05T12:54:09.084Z,10.60
2022-11-05T12:56:56.363Z,10.60
2022-11-05T12:59:23.598Z,9.07
2022-11-05T13:02:13.716Z,9.68
2022-11-05T13:04:58.553Z,9.68
2022-11-05T13:07:30.752Z,10.32
2022-11-05T13:10:15.342Z,7.85
2022-11-05T13:12:43.335Z,10.15
2022-11-05T13:15:10.640Z,8.45
2022-11-05T13:17:58.429Z,9.75
2022-11-05T13:20:28.188Z,10.68
2022-11-05T13:23:01.203Z,9.20
2022-11-05T13:25:32.804Z,8.55
2022-11-05T13:28:13.202Z,6.38
2022-11-05T13:30:43.752Z,8.57
2022-11-05T13:33:20.194Z,7.15
2022-11-05T13:36:27.399Z,8.60
2022-11-05T13:38:59.440Z,7.88
2022-11-05T13:41:45.549Z,9.18
2022-11-05T13:44:31.200Z,9.15
2022-11-05T13:47:08.635Z,8.70
2022-11-05T13:49:41.992Z,10.93
2022-11-05T13:52:30.516Z,10.05
2022-11-05T13:54:57.691Z,7.38
2022-11-05T13:57:24.882Z,9.48
2022-11-05T14:00:04.229Z,7.95
2022-11-05T14:02:39.598Z,9.68
2022-11-05T14:05:07.857Z,10.82
2022-11-05T14:07:45.269Z,9.07
2022-11-05T14:10:17.471Z,10.63
2022-11-05T14:12:48.660Z,9.68
2022-11-05T14:15:15.834Z,9.15
2022-11-05T14:17:55.551Z,8.43
2022-11-05T14:20:33.177Z,10.45
2022-11-05T14:23:19.306Z,8.95
2022-11-05T14:25:46.462Z,9.02
2022-11-05T14:28:29.124Z,11.07
2022-11-05T14:30:56.396Z,11.70
2022-11-05T14:33:26.630Z,10.68
2022-11-05T14:36:13.772Z,9.63
2022-11-05T14:38:47.513Z,9.73
2022-11-05T14:41:14.722Z,13.25
2022-11-05T14:43:46.156Z,10.20
2022-11-05T14:46:13.416Z,9.13
2022-11-05T14:48:53.749Z,11.15
2022-11-05T14:51:27.178Z,10.07
2022-11-05T14:54:00.420Z,10.95
2022-11-05T14:56:27.788Z,9.32
2022-11-05T14:59:14.951Z,10.93
2022-11-05T15:01:42.337Z,8.45
2022-11-05T15:04:29.636Z,10.07
2022-11-05T15:07:05.904Z,10.02
2022-11-05T15:09:36.228Z,11.35
2022-11-05T15:12:07.138Z,8.45
2022-11-05T15:14:42.252Z,10.52
2022-11-05T15:17:14.971Z,9.90
2022-11-05T15:19:42.446Z,9.43
2022-11-05T15:22:19.809Z,9.15
2022-11-05T15:24:47.861Z,8.90
2022-11-05T15:27:20.798Z,9.27
2022-11-05T15:29:48.013Z,9.93
2022-11-05T15:32:19.009Z,9.65
2022-11-05T15:34:53.651Z,10.73
2022-11-05T15:37:22.163Z,7.78
2022-11-05T15:39:49.997Z,9.32
2022-11-05T15:42:22.154Z,8.43
2022-11-05T15:44:50.571Z,9.15
2022-11-05T15:47:25.279Z,7.85
2022-11-05T15:49:52.577Z,8.98
2022-11-05T15:52:21.629Z,9.68
2022-11-05T15:55:06.853Z,10.77
2022-11-05T15:57:37.968Z,8.80
2022-11-05T16:00:08.831Z,9.77
2022-11-05T16:02:38.835Z,8.65
2022-11-05T16:05:12.338Z,7.90
2022-11-05T16:07:47.298Z,8.50
2022-11-05T16:10:29.435Z,10.93
2022-11-05T16:12:57.033Z,9.82
2022-11-05T16:15:25.434Z,7.68
2022-11-05T16:17:57.550Z,9.05
2022-11-05T16:20:32.240Z,11.27
2022-11-05T16:23:00.381Z,9.95
2022-11-05T16:25:27.597Z,7.60
2022-11-05T16:27:55.067Z,12.48
2022-11-05T16:30:22.723Z,11.32
2022-11-05T16:32:50.155Z,8.52
2022-11-05T16:35:26.374Z,8.50
2022-11-05T16:37:53.615Z,7.85
2022-11-05T16:40:24.049Z,12.25
2022-11-05T16:42:52.186Z,7.70
2022-11-05T16:45:21.320Z,9.52
2022-11-05T16:47:48.649Z,9.70
2022-11-05T16:50:18.845Z,10.77
2022-11-05T16:52:46.839Z,10.93
2022-11-05T16:55:15.043Z,9.10
2022-11-05T16:57:46.319Z,10.35
2022-11-05T17:00:18.015Z,13.85
2022-11-05T17:02:45.809Z,12.40
2022-11-05T17:05:19.105Z,8.30
2022-11-05T17:07:46.646Z,9.95
2022-11-05T17:10:14.501Z,11.90
2022-11-05T17:12:42.136Z,8.23
2022-11-05T17:15:18.204Z,13.23
2022-11-05T17:17:45.749Z,11.95
2022-11-05T17:20:36.485Z,14.05
2022-11-05T17:23:07.060Z,8.32
2022-11-05T17:25:34.454Z,9.45
2022-11-05T17:28:01.738Z,9.73
2022-11-05T17:30:28.956Z,9.35
2022-11-05T17:32:56.486Z,10.85
2022-11-05T17:35:23.794Z,10.30
2022-11-05T17:37:51.391Z,8.80
2022-11-05T17:40:22.450Z,8.25
2022-11-05T17:42:50.147Z,10.85
2022-11-05T17:45:17.784Z,9.82
2022-11-05T17:47:45.392Z,10.70
2022-11-05T17:50:15.339Z,12.05
2022-11-05T17:52:42.793Z,11.57
2022-11-05T17:55:16.596Z,10.77
2022-11-05T17:57:44.993Z,9.80
2022-11-05T18:00:13.021Z,8.95
2022-11-05T18:02:40.216Z,9.82
2022-11-05T18:05:07.786Z,10.13
2022-11-05T18:07:35.028Z,8.80
2022-11-05T18:10:02.343Z,9.95
2022-11-05T18:12:29.860Z,9.27
2022-11-05T18:14:57.164Z,10.52
2022-11-05T18:17:24.348Z,10.82
2022-11-05T18:19:51.620Z,9.90
2022-11-05T18:22:19.528Z,9.95
2022-11-05T18:24:46.834Z,10.50
2022-11-05T18:27:14.071Z,8.48
2022-11-05T18:29:41.618Z,10.65
2022-11-05T18:32:08.830Z,10.88
2022-11-05T18:34:36.280Z,11.48
2022-11-05T18:37:03.718Z,13.50
2022-11-05T18:39:30.965Z,9.65
2022-11-05T18:41:58.282Z,10.98
2022-11-05T18:44:25.659Z,12.18
2022-11-05T18:46:58.032Z,11.75
2022-11-05T18:49:25.712Z,10.23
2022-11-05T18:51:52.978Z,9.73
2022-11-05T18:54:20.411Z,9.68
2022-11-05T18:56:47.667Z,8.52
2022-11-05T19:02:04.676Z,10.23
2022-11-05T19:04:32.122Z,9.40
2022-11-05T19:07:04.365Z,8.80
2022-11-05T19:09:32.671Z,8.82
2022-11-05T19:11:59.877Z,9.02
2022-11-05T19:14:27.076Z,11.65
2022-11-05T19:16:54.353Z,11.13
2022-11-05T19:19:21.536Z,10.45
2022-11-05T19:21:48.780Z,9.68
2022-11-05T19:24:17.389Z,9.57
2022-11-05T19:26:44.776Z,9.23
2022-11-05T19:29:12.003Z,11.85
2022-11-05T19:31:39.221Z,10.48
2022-11-05T19:34:06.469Z,7.63
2022-11-05T19:36:34.355Z,11.40
2022-11-05T19:39:06.264Z,9.93
2022-11-05T19:41:33.660Z,11.43
2022-11-05T19:44:04.275Z,12.05
2022-11-05T19:46:31.829Z,9.60
2022-11-05T19:49:00.411Z,10.70
2022-11-05T19:51:28.797Z,11.13
2022-11-05T19:53:56.441Z,10.70
2022-11-05T19:56:27.804Z,11.35
2022-11-05T19:58:55.176Z,9.63
2022-11-05T20:01:24.302Z,10.35
2022-11-05T20:06:20.381Z,9.88
2022-11-05T20:09:15.126Z,10.43
2022-11-05T20:11:37.502Z,13.07
2022-11-05T20:16:38.240Z,8.95
2022-11-05T20:19:07.321Z,9.43
2022-11-05T20:21:34.688Z,10.57
2022-11-05T20:24:02.506Z,9.68
2022-11-05T20:26:29.791Z,8.70
2022-11-05T20:28:57.331Z,10.38
2022-11-05T20:31:24.625Z,12.18
2022-11-05T20:33:52.369Z,9.85
2022-11-05T20:36:22.094Z,11.05
2022-11-05T20:38:50.033Z,12.07
2022-11-05T20:41:17.543Z,13.02
2022-11-05T20:43:44.840Z,10.20
2022-11-05T20:46:14.232Z,10.48
2022-11-05T20:51:13.323Z,12.23
2022-11-05T20:53:40.672Z,10.95
2022-11-05T20:56:11.434Z,10.00
2022-11-05T20:58:39.690Z,9.73
2022-11-05T21:01:08.298Z,11.50
2022-11-05T21:03:35.547Z,10.65
2022-11-05T21:06:06.864Z,9.18
2022-11-05T21:08:34.418Z,9.75
2022-11-05T21:11:01.680Z,9.73
2022-11-05T21:13:29.382Z,10.80
2022-11-05T21:15:58.371Z,13.35
2022-11-05T21:18:28.247Z,10.75
2022-11-05T21:20:58.620Z,11.07
2022-11-05T21:23:27.444Z,10.30
2022-11-05T21:25:54.885Z,12.90
2022-11-05T21:28:22.335Z,10.02
2022-11-05T21:30:49.807Z,10.88
2022-11-05T21:33:18.422Z,10.73
2022-11-05T21:35:47.111Z,13.35
2022-11-05T21:38:15.711Z,9.73
2022-11-05T21:40:43.686Z,12.80
2022-11-05T21:43:10.989Z,9.13
2022-11-05T21:45:42.048Z,11.13
2022-11-05T21:48:09.796Z,14.77
2022-11-05T21:50:58.794Z,11.55
2022-11-05T21:53:45.169Z,12.77
2022-11-05T21:56:56.804Z,11.57
2022-11-05T21:59:45.250Z,11.77
2022-11-05T22:02:13.414Z,11.98
2022-11-05T22:04:42.091Z,11.55
2022-11-05T22:07:10.650Z,12.93
2022-11-05T22:09:38.143Z,9.27
2022-11-05T22:12:05.509Z,9.75
2022-11-05T22:14:32.872Z,11.27
2022-11-05T22:17:00.405Z,14.98
2022-11-05T22:19:27.999Z,12.02
2022-11-05T22:21:55.323Z,10.23
2022-11-05T22:24:22.599Z,13.23
2022-11-05T22:26:51.403Z,10.88
2022-11-05T22:29:18.692Z,11.68
2022-11-05T22:31:46.049Z,12.05
2022-11-05T22:34:13.614Z,12.70
2022-11-05T22:36:40.871Z,12.07
2022-11-05T22:39:08.163Z,12.43
2022-11-05T22:41:35.429Z,11.95
2022-11-05T22:44:03.506Z,8.43
2022-11-05T22:46:31.197Z,12.23
2022-11-05T22:48:58.547Z,10.73
2022-11-05T22:51:31.250Z,12.13
2022-11-05T22:53:59.257Z,11.63
2022-11-05T22:56:32.232Z,10.30
2022-11-05T22:59:00.033Z,11.10
2022-11-05T23:01:27.741Z,11.02
2022-11-05T23:03:55.812Z,10.75
2022-11-05T23:06:49.272Z,9.77
2022-11-05T23:09:36.502Z,10.50
2022-11-05T23:12:04.890Z,10.30
2022-11-05T23:14:32.622Z,10.65
2022-11-05T23:17:21.632Z,9.80
2022-11-05T23:20:07.467Z,10.00
2022-11-05T23:22:53.232Z,11.13
2022-11-05T23:25:22.670Z,10.57
2022-11-05T23:27:51.721Z,13.45
2022-11-05T23:30:26.348Z,9.77
2022-11-05T23:32:55.625Z,10.18
2022-11-05T23:35:42.801Z,10.70
2022-11-05T23:38:28.688Z,11.40
2022-11-05T23:41:19.150Z,10.45
2022-11-05T23:44:06.662Z,11.45
2022-11-05T23:46:52.437Z,11.40
2022-11-05T23:49:19.709Z,8.38
2022-11-05T23:51:47.029Z,8.20
2022-11-05T23:54:14.283Z,8.93
2022-11-05T23:56:41.537Z,13.65
2022-11-05T23:59:08.809Z,11.63
